createdAt,value
2023-04-01T00:00:12.533Z,99236.19
2023-04-01T00:02:39.959Z,99240.53
2023-04-01T00:05:09.236Z,99233.56
2023-04-01T00:07:37.481Z,99242.31
2023-04-01T00:10:10.807Z,99236.19
2023-04-01T00:12:39.858Z,99242.41
2023-04-01T00:15:08.939Z,99238.88
2023-04-01T00:17:36.663Z,99244.19
2023-04-01T00:20:04.776Z,99245.06
2023-04-01T00:22:32.415Z,99238.03
2023-04-01T00:24:59.672Z,99243.28
2023-04-01T00:27:27.154Z,99240.66
2023-04-01T00:29:54.486Z,99241.59
2023-04-01T00:32:21.811Z,99244.22
2023-04-01T00:34:52.775Z,99236.38
2023-04-01T00:37:21.984Z,99246.00
2023-04-01T00:39:49.422Z,99235.47
2023-04-01T00:42:17.006Z,99239.84
2023-04-01T00:44:49.211Z,99232.84
2023-04-01T00:47:16.733Z,99232.84
2023-04-01T00:49:47.814Z,99240.66
2023-04-01T00:52:19.534Z,99241.56
2023-04-01T00:54:50.376Z,99236.25
2023-04-01T00:57:26.581Z,99233.63
2023-04-01T00:59:55.893Z,99238.00
2023-04-01T01:02:23.566Z,99236.25
2023-04-01T01:04:51.108Z,99236.25
2023-04-01T01:07:51.650Z,99233.63
2023-04-01T01:10:27.921Z,99238.94
2023-04-01T01:13:06.264Z,99244.19
2023-04-01T01:15:38.855Z,99251.19
2023-04-01T01:18:32.628Z,99245.03
2023-04-01T01:21:20.602Z,99245.03
2023-04-01T01:24:04.310Z,99252.06
2023-04-01T01:26:37.399Z,99248.56
2023-04-01T01:29:35.542Z,99251.19
2023-04-01T01:32:30.839Z,99253.88
2023-04-01T01:35:17.050Z,99252.13
2023-04-01T01:37:46.936Z,99247.81
2023-04-01T01:40:17.460Z,99253.91
2023-04-01T01:42:50.912Z,99255.69
2023-04-01T01:45:22.389Z,99261.78
2023-04-01T01:47:51.493Z,99256.53
2023-04-01T01:50:21.165Z,99253.91
2023-04-01T01:52:48.445Z,99255.69
2023-04-01T01:55:34.386Z,99261.78
2023-04-01T01:58:41.827Z,99260.94
2023-04-01T02:01:18.600Z,99258.34
2023-04-01T02:03:48.050Z,99269.72
2023-04-01T02:06:19.374Z,99270.56
2023-04-01T02:08:53.108Z,99272.34
2023-04-01T02:11:31.203Z,99267.06
2023-04-01T02:14:22.842Z,99268.84
2023-04-01T02:17:00.874Z,99272.34
2023-04-01T02:19:34.842Z,99275.81
2023-04-01T02:22:05.010Z,99277.59
2023-04-01T02:24:35.415Z,99279.34
2023-04-01T02:27:02.975Z,99288.09
2023-04-01T02:29:33.072Z,99278.44
2023-04-01T02:32:01.574Z,99278.50
2023-04-01T02:34:29.246Z,99279.41
2023-04-01T02:36:58.279Z,99289.09
2023-04-01T02:39:27.394Z,99290.88
2023-04-01T02:41:54.746Z,99290.00
2023-04-01T02:44:22.084Z,99290.88
2023-04-01T02:46:49.410Z,99286.53
2023-04-01T02:49:16.852Z,99297.06
2023-04-01T02:51:44.237Z,99292.69
2023-04-01T02:54:11.629Z,99295.31
2023-04-01T02:56:39.343Z,99301.41
2023-04-01T02:59:06.620Z,99302.31
2023-04-01T03:01:33.983Z,99304.09
2023-04-01T03:04:01.366Z,99299.72
2023-04-01T03:06:28.591Z,99314.63
2023-04-01T03:08:56.032Z,99317.31
2023-04-01T03:11:23.800Z,99318.22
2023-04-01T03:13:51.252Z,99320.00
2023-04-01T03:16:19.981Z,99308.69
2023-04-01T03:18:47.497Z,99320.06
2023-04-01T03:21:20.727Z,99314.78
2023-04-01T03:23:48.068Z,99310.44
2023-04-01T03:26:15.936Z,99314.81
2023-04-01T03:28:44.201Z,99318.34
2023-04-01T03:31:12.158Z,99319.22
2023-04-01T03:33:45.956Z,99327.09
2023-04-01T03:36:13.820Z,99322.69
2023-04-01T03:38:42.117Z,99327.97
2023-04-01T03:41:15.949Z,99335.00
2023-04-01T03:43:45.476Z,99327.19
2023-04-01T03:46:17.573Z,99331.56
2023-04-01T03:48:44.923Z,99342.06
2023-04-01T03:51:12.294Z,99331.56
2023-04-01T03:53:39.532Z,99330.69
2023-04-01T03:56:08.556Z,99342.94
2023-04-01T03:58:38.058Z,99336.78
2023-04-01T04:01:18.660Z,99348.19
2023-04-01T04:03:46.901Z,99345.59
2023-04-01T04:06:15.585Z,99356.09
2023-04-01T04:08:43.386Z,99343.84
2023-04-01T04:11:10.845Z,99360.47
2023-04-01T04:13:42.661Z,99350.84
2023-04-01T04:16:11.250Z,99356.97
2023-04-01T04:18:43.751Z,99356.97
2023-04-01T04:21:15.857Z,99356.09
2023-04-01T04:23:43.966Z,99362.19
2023-04-01T04:26:13.938Z,99363.06
2023-04-01T04:28:41.615Z,99365.69
2023-04-01T04:31:10.697Z,99371.81
2023-04-01T04:33:38.258Z,99376.22
2023-04-01T04:36:06.196Z,99380.59
2023-04-01T04:38:34.392Z,99379.75
2023-04-01T04:41:01.984Z,99384.13
2023-04-01T04:43:29.850Z,99397.25
2023-04-01T04:45:57.815Z,99385.00
2023-04-01T04:48:25.350Z,99393.75
2023-04-01T04:50:52.753Z,99392.91
2023-04-01T04:53:23.888Z,99408.69
2023-04-01T04:55:51.477Z,99407.81
2023-04-01T04:58:28.671Z,99406.06
2023-04-01T05:00:56.431Z,99411.34
2023-04-01T05:03:31.523Z,99410.47
2023-04-01T05:05:59.105Z,99413.97
2023-04-01T05:08:26.388Z,99419.22
2023-04-01T05:10:53.694Z,99421.84
2023-04-01T05:13:21.319Z,99419.22
2023-04-01T05:15:49.290Z,99427.09
2023-04-01T05:18:17.739Z,99421.84
2023-04-01T05:20:53.165Z,99428.84
2023-04-01T05:23:22.193Z,99439.34
2023-04-01T05:25:53.952Z,99434.97
2023-04-01T05:28:21.329Z,99437.56
2023-04-01T05:30:48.914Z,99441.06
2023-04-01T05:33:24.836Z,99442.84
2023-04-01T05:35:52.317Z,99448.94
2023-04-01T05:38:19.645Z,99448.06
2023-04-01T05:40:46.981Z,99448.06
2023-04-01T05:43:15.529Z,99454.19
2023-04-01T05:45:45.299Z,99462.06
2023-04-01T05:48:16.477Z,99455.03
2023-04-01T05:50:44.977Z,99466.41
2023-04-01T05:53:12.837Z,99462.91
2023-04-01T05:55:43.260Z,99468.16
2023-04-01T05:58:10.738Z,99475.13
2023-04-01T06:00:40.361Z,99476.88
2023-04-01T06:03:08.573Z,99477.75
2023-04-01T06:05:44.289Z,99484.75
2023-04-01T06:08:20.304Z,99486.53
2023-04-01T06:11:21.896Z,99490.00
2023-04-01T06:14:08.397Z,99490.88
2023-04-01T06:16:56.283Z,99500.53
2023-04-01T06:19:29.558Z,99498.75
2023-04-01T06:22:09.008Z,99506.63
2023-04-01T06:25:23.158Z,99504.81
2023-04-01T06:27:53.927Z,99518.81
2023-04-01T06:30:39.298Z,99512.63
2023-04-01T06:33:11.209Z,99511.72
2023-04-01T06:35:44.799Z,99522.22
2023-04-01T06:39:04.281Z,99517.78
2023-04-01T06:41:54.288Z,99530.91
2023-04-01T06:44:51.251Z,99531.75
2023-04-01T06:48:07.831Z,99538.72
2023-04-01T06:51:16.701Z,99537.84
2023-04-01T06:54:32.489Z,99547.47
2023-04-01T06:57:39.459Z,99549.22
2023-04-01T07:00:22.282Z,99554.41
2023-04-01T07:02:59.251Z,99562.31
2023-04-01T07:05:32.192Z,99550.06
2023-04-01T07:08:05.312Z,99561.44
2023-04-01T07:10:54.569Z,99564.91
2023-04-01T07:13:59.432Z,99567.53
2023-04-01T07:16:42.086Z,99573.53
2023-04-01T07:19:48.219Z,99581.31
2023-04-01T07:22:27.483Z,99582.16
2023-04-01T07:25:17.733Z,99576.03
2023-04-01T07:27:51.374Z,99577.78
2023-04-01T07:30:21.894Z,99589.16
2023-04-01T07:33:16.530Z,99594.34
2023-04-01T07:35:51.178Z,99600.47
2023-04-01T07:38:39.976Z,99598.69
2023-04-01T07:41:40.275Z,99610.97
2023-04-01T07:44:13.833Z,99613.56
2023-04-01T07:46:57.221Z,99617.09
2023-04-01T07:49:40.618Z,99622.31
2023-04-01T07:52:15.819Z,99624.94
2023-04-01T07:55:07.638Z,99627.50
2023-04-01T07:57:44.492Z,99639.78
2023-04-01T08:00:31.065Z,99630.13
2023-04-01T08:03:16.245Z,99646.81
2023-04-01T08:05:56.521Z,99652.97
2023-04-01T08:08:44.147Z,99656.47
2023-04-01T08:11:33.193Z,99651.19
2023-04-01T08:14:45.317Z,99661.69
2023-04-01T08:17:46.810Z,99660.75
2023-04-01T08:20:33.501Z,99663.38
2023-04-01T08:23:12.164Z,99675.56
2023-04-01T08:25:49.290Z,99691.47
2023-04-01T08:28:42.346Z,99689.94
2023-04-01T08:31:57.621Z,99691.13
2023-04-01T08:34:29.464Z,99696.50
2023-04-01T08:37:08.243Z,99708.06
2023-04-01T08:39:45.307Z,99711.66
2023-04-01T08:42:41.785Z,99725.00
2023-04-01T08:45:19.550Z,99722.44
2023-04-01T08:48:29.085Z,99733.00
2023-04-01T08:50:57.714Z,99740.03
2023-04-01T08:54:02.601Z,99744.44
2023-04-01T08:56:42.452Z,99742.72
2023-04-01T08:59:31.267Z,99755.84
2023-04-01T09:02:26.606Z,99754.13
2023-04-01T09:05:27.433Z,99756.75
2023-04-01T09:08:15.463Z,99768.16
2023-04-01T09:11:01.726Z,99762.91
2023-04-01T09:13:51.934Z,99775.19
2023-04-01T09:16:22.301Z,99776.91
2023-04-01T09:18:59.535Z,99776.91
2023-04-01T09:22:02.587Z,99799.69
2023-04-01T09:24:36.641Z,99793.56
2023-04-01T09:27:31.817Z,99807.56
2023-04-01T09:30:01.856Z,99806.66
2023-04-01T09:32:41.770Z,99809.25
2023-04-01T09:35:29.070Z,99815.38
2023-04-01T09:38:09.751Z,99832.00
2023-04-01T09:40:49.732Z,99820.66
2023-04-01T09:43:57.185Z,99828.53
2023-04-01T09:46:46.577Z,99829.41
2023-04-01T09:49:23.359Z,99829.38
2023-04-01T09:52:11.039Z,99845.97
2023-04-01T09:54:38.406Z,99847.75
2023-04-01T09:57:50.372Z,99873.13
2023-04-01T10:01:08.383Z,99857.38
2023-04-01T10:04:15.690Z,99858.28
2023-04-01T10:06:46.058Z,99862.63
2023-04-01T10:09:48.259Z,99872.31
2023-04-01T10:12:41.489Z,99881.03
2023-04-01T10:15:46.481Z,99885.44
2023-04-01T10:18:24.698Z,99890.72
2023-04-01T10:21:10.964Z,99895.97
2023-04-01T10:24:04.964Z,99897.69
2023-04-01T10:27:00.642Z,99906.50
2023-04-01T10:30:28.475Z,99910.00
2023-04-01T10:33:27.456Z,99916.09
2023-04-01T10:36:40.125Z,99920.47
2023-04-01T10:39:55.578Z,99924.88
2023-04-01T10:43:15.938Z,99933.63
2023-04-01T10:46:16.955Z,99928.34
2023-04-01T10:49:03.402Z,99942.38
2023-04-01T10:52:04.075Z,99939.75
2023-04-01T10:55:36.738Z,99930.97
2023-04-01T10:58:38.712Z,99941.50
2023-04-01T11:02:10.782Z,99948.47
2023-04-01T11:05:56.119Z,99957.22
2023-04-01T11:08:38.719Z,99963.34
2023-04-01T11:11:35.691Z,99963.34
2023-04-01T11:14:29.538Z,99960.72
2023-04-01T11:17:31.545Z,99969.50
2023-04-01T11:20:29.990Z,99968.59
2023-04-01T11:23:17.075Z,99983.50
2023-04-01T11:26:08.597Z,99990.50
2023-04-01T11:28:58.788Z,99997.47
2023-04-01T11:31:48.971Z,99998.38
2023-04-01T11:34:29.928Z,99999.25
2023-04-01T11:37:20.568Z,99997.47
2023-04-01T11:40:26.602Z,100001.81
2023-04-01T11:43:32.291Z,100009.69
2023-04-01T11:46:34.891Z,100025.41
2023-04-01T11:49:36.663Z,100028.06
2023-04-01T11:52:38.744Z,100029.81
2023-04-01T11:55:12.111Z,100039.44
2023-04-01T11:57:57.607Z,100042.97
2023-04-01T12:00:36.654Z,100043.84
2023-04-01T12:03:28.593Z,100053.50
2023-04-01T12:06:00.113Z,100055.25
2023-04-01T12:08:45.785Z,100064.00
2023-04-01T12:11:24.669Z,100063.13
2023-04-01T12:14:14.152Z,100064.88
2023-04-01T12:16:47.691Z,100076.25
2023-04-01T12:19:33.871Z,100078.00
2023-04-01T12:22:35.734Z,100090.25
2023-04-01T12:25:21.416Z,100089.38
2023-04-01T12:27:54.680Z,100092.88
2023-04-01T12:30:39.100Z,100090.25
2023-04-01T12:33:28.125Z,100099.91
2023-04-01T12:36:31.373Z,100106.88
2023-04-01T12:39:13.664Z,100112.13
2023-04-01T12:42:00.210Z,100110.38
2023-04-01T12:44:50.829Z,100112.09
2023-04-01T12:47:33.120Z,100127.00
2023-04-01T12:50:31.646Z,100131.38
2023-04-01T12:53:04.814Z,100127.91
2023-04-01T12:55:42.619Z,100143.66
2023-04-01T12:58:51.842Z,100145.41
2023-04-01T13:01:38.437Z,100167.31
2023-04-01T13:04:52.593Z,100163.81
2023-04-01T13:07:38.614Z,100155.94
2023-04-01T13:10:28.989Z,100168.16
2023-04-01T13:13:05.340Z,100168.16
2023-04-01T13:15:41.811Z,100172.56
2023-04-01T13:18:22.522Z,100176.94
2023-04-01T13:21:09.946Z,100190.06
2023-04-01T13:24:00.618Z,100189.19
2023-04-01T13:26:55.109Z,100198.84
2023-04-01T13:29:31.815Z,100205.84
2023-04-01T13:32:18.652Z,100200.56
2023-04-01T13:35:02.394Z,100205.81
2023-04-01T13:37:55.515Z,100218.09
2023-04-01T13:40:33.066Z,100229.47
2023-04-01T13:43:15.450Z,100232.09
2023-04-01T13:46:20.296Z,100224.22
2023-04-01T13:49:18.797Z,100231.22
2023-04-01T13:52:17.411Z,100252.19
2023-04-01T13:55:36.053Z,100256.53
2023-04-01T13:58:35.338Z,100262.63
2023-04-01T14:01:27.436Z,100264.38
2023-04-01T14:04:28.913Z,100263.50
2023-04-01T14:07:03.123Z,100263.47
2023-04-01T14:09:59.781Z,100271.34
2023-04-01T14:12:37.779Z,100288.81
2023-04-01T14:15:22.675Z,100293.16
2023-04-01T14:18:20.994Z,100293.19
2023-04-01T14:21:10.118Z,100294.91
2023-04-01T14:23:41.381Z,100294.88
2023-04-01T14:26:36.710Z,100314.09
2023-04-01T14:29:27.370Z,100309.66
2023-04-01T14:32:17.441Z,100324.53
2023-04-01T14:35:14.631Z,100320.03
2023-04-01T14:38:06.820Z,100331.38
2023-04-01T14:41:12.074Z,100359.25
2023-04-01T14:43:53.081Z,100365.34
2023-04-01T14:46:46.828Z,100351.34
2023-04-01T14:49:21.751Z,100366.16
2023-04-01T14:51:52.873Z,100379.28
2023-04-01T14:54:39.237Z,100372.25
2023-04-01T14:57:13.741Z,100388.81
2023-04-01T14:59:48.712Z,100384.38
2023-04-01T15:02:27.250Z,100402.72
2023-04-01T15:05:05.868Z,100405.25
2023-04-01T15:07:57.874Z,100408.75
2023-04-01T15:10:53.109Z,100416.59
2023-04-01T15:13:29.633Z,100420.00
2023-04-01T15:16:24.996Z,100426.06
2023-04-01T15:19:02.068Z,100423.44
2023-04-01T15:21:56.596Z,100437.44
2023-04-01T15:24:28.197Z,100431.31
2023-04-01T15:27:34.006Z,100451.44
2023-04-01T15:30:18.489Z,100476.75
2023-04-01T15:33:31.310Z,100460.13
2023-04-01T15:36:07.654Z,100466.97
2023-04-01T15:38:44.621Z,100477.44
2023-04-01T15:41:30.740Z,100483.47
2023-04-01T15:43:57.989Z,100484.31
2023-04-01T15:46:29.018Z,100486.03
2023-04-01T15:49:14.895Z,100501.72
2023-04-01T15:52:06.633Z,100495.47
2023-04-01T15:54:53.653Z,100507.63
2023-04-01T15:57:33.968Z,100513.72
2023-04-01T16:00:11.926Z,100532.84
2023-04-01T16:02:49.683Z,100537.09
2023-04-01T16:06:01.999Z,100528.31
2023-04-01T16:09:01.453Z,100551.84
2023-04-01T16:11:42.202Z,100540.50
2023-04-01T16:14:21.065Z,100553.63
2023-04-01T16:17:00.757Z,100553.59
2023-04-01T16:19:43.281Z,100565.75
2023-04-01T16:22:32.180Z,100563.16
2023-04-01T16:25:20.446Z,100570.16
2023-04-01T16:27:59.692Z,100581.44
2023-04-01T16:30:36.288Z,100576.22
2023-04-01T16:33:41.475Z,100590.13
2023-04-01T16:36:51.041Z,100613.66
2023-04-01T16:39:31.806Z,100604.88
2023-04-01T16:42:08.543Z,100612.75
2023-04-01T16:45:23.709Z,100617.06
2023-04-01T16:48:14.475Z,100623.19
2023-04-01T16:51:01.159Z,100629.19
2023-04-01T16:53:44.300Z,100640.50
2023-04-01T16:56:16.879Z,100636.94
2023-04-01T16:59:02.864Z,100648.22
2023-04-01T17:01:45.745Z,100656.91
2023-04-01T17:04:42.412Z,100651.66
2023-04-01T17:07:19.418Z,100655.94
2023-04-01T17:10:00.550Z,100679.41
2023-04-01T17:12:55.879Z,100676.72
2023-04-01T17:15:29.425Z,100684.44
2023-04-01T17:18:10.268Z,100695.75
2023-04-01T17:21:18.273Z,100702.59
2023-04-01T17:24:13.749Z,100714.72
2023-04-01T17:27:10.660Z,100724.16
2023-04-01T17:30:01.320Z,100726.75
2023-04-01T17:32:40.983Z,100726.75
2023-04-01T17:35:17.776Z,100757.16
2023-04-01T17:38:10.609Z,100757.94
2023-04-01T17:40:59.658Z,100746.63
2023-04-01T17:43:57.284Z,100760.53
2023-04-01T17:46:43.366Z,100765.84
2023-04-01T17:49:36.878Z,100779.78
2023-04-01T17:52:22.847Z,100778.91
2023-04-01T17:55:08.872Z,100795.34
2023-04-01T17:57:54.846Z,100808.38
2023-04-01T18:00:30.091Z,100804.84
2023-04-01T18:03:25.164Z,100812.69
2023-04-01T18:06:11.943Z,100812.63
2023-04-01T18:08:42.530Z,100828.28
2023-04-01T18:11:34.323Z,100841.16
2023-04-01T18:14:10.924Z,100831.50
2023-04-01T18:16:44.371Z,100839.38
2023-04-01T18:19:20.748Z,100840.25
2023-04-01T18:22:16.215Z,100846.31
2023-04-01T18:24:50.863Z,100868.88
2023-04-01T18:27:23.844Z,100862.69
2023-04-01T18:29:57.618Z,100881.69
2023-04-01T18:32:49.158Z,100882.47
2023-04-01T18:35:41.755Z,100916.34
2023-04-01T18:38:27.727Z,100927.56
2023-04-01T18:41:12.546Z,100904.81
2023-04-01T18:44:02.709Z,100915.22
2023-04-01T18:47:04.034Z,100925.78
2023-04-01T18:49:44.479Z,100929.22
2023-04-01T18:52:19.176Z,100950.81
2023-04-01T18:55:25.183Z,100954.16
2023-04-01T18:57:57.690Z,100963.69
2023-04-01T19:00:54.118Z,100959.19
2023-04-01T19:03:28.211Z,100968.69
2023-04-01T19:06:01.222Z,100965.31
2023-04-01T19:08:29.148Z,100979.19
2023-04-01T19:10:56.697Z,100986.91
2023-04-01T19:13:26.927Z,100995.66
2023-04-01T19:16:05.203Z,100994.81
2023-04-01T19:18:35.519Z,100997.38
2023-04-01T19:21:20.593Z,101019.06
2023-04-01T19:24:00.674Z,101032.03
2023-04-01T19:26:40.338Z,101019.88
2023-04-01T19:29:19.503Z,101026.81
2023-04-01T19:32:21.034Z,101040.66
2023-04-01T19:34:54.428Z,101055.50
2023-04-01T19:37:46.432Z,101040.53
2023-04-01T19:40:38.986Z,101059.59
2023-04-01T19:43:30.716Z,101049.91
2023-04-01T19:46:07.737Z,101058.50
2023-04-01T19:49:10.488Z,101071.59
2023-04-01T19:51:56.212Z,101068.00
2023-04-01T19:54:29.425Z,101074.84
2023-04-01T19:57:06.978Z,101087.97
2023-04-01T19:59:56.141Z,101088.84
2023-04-01T20:02:52.097Z,101096.59
2023-04-01T20:05:33.807Z,101100.09
2023-04-01T20:08:05.468Z,101100.09
2023-04-01T20:10:50.454Z,101108.91
2023-04-01T20:13:42.942Z,101114.94
2023-04-01T20:16:12.694Z,101143.59
2023-04-01T20:19:00.900Z,101153.06
2023-04-01T20:21:40.431Z,101144.22
2023-04-01T20:24:37.274Z,101151.25
2023-04-01T20:27:14.227Z,101146.75
2023-04-01T20:30:19.943Z,101162.22
2023-04-01T20:33:12.544Z,101199.47
2023-04-01T20:36:04.912Z,101188.03
2023-04-01T20:39:10.196Z,101188.09
2023-04-01T20:41:56.614Z,101190.69
2023-04-01T20:44:23.856Z,101206.38
2023-04-01T20:47:02.962Z,101204.66
2023-04-01T20:49:49.597Z,101202.94
2023-04-01T20:52:27.933Z,101207.97
2023-04-01T20:55:13.448Z,101207.91
2023-04-01T20:57:40.693Z,101235.69
2023-04-01T21:00:25.538Z,101231.13
2023-04-01T21:03:15.971Z,101223.28
2023-04-01T21:05:56.474Z,101209.44
2023-04-01T21:08:42.060Z,101234.53
2023-04-01T21:11:17.057Z,101237.94
2023-04-01T21:14:02.872Z,101243.09
2023-04-01T21:16:45.743Z,101242.16
2023-04-01T21:19:20.676Z,101251.72
2023-04-01T21:21:47.868Z,101258.63
2023-04-01T21:24:52.275Z,101257.75
2023-04-01T21:27:40.620Z,101258.56
2023-04-01T21:30:35.220Z,101263.63
2023-04-01T21:33:08.571Z,101280.88
2023-04-01T21:35:53.082Z,101273.91
2023-04-01T21:38:30.865Z,101275.63
2023-04-01T21:41:20.019Z,101286.84
2023-04-01T21:44:23.495Z,101291.16
2023-04-01T21:46:57.040Z,101294.66
2023-04-01T21:50:11.802Z,101303.25
2023-04-01T21:53:14.959Z,101310.91
2023-04-01T21:56:09.951Z,101312.28
2023-04-01T21:59:06.840Z,101318.31
2023-04-01T22:01:43.339Z,101339.81
2023-04-01T22:04:16.811Z,101337.06
2023-04-01T22:07:18.032Z,101347.34
2023-04-01T22:10:16.215Z,101343.78
2023-04-01T22:13:09.697Z,101374.97
2023-04-01T22:15:46.152Z,101366.06
2023-04-01T22:18:24.139Z,101371.13
2023-04-01T22:20:58.578Z,101383.94
2023-04-01T22:24:12.570Z,101382.03
2023-04-01T22:27:03.826Z,101392.34
2023-04-01T22:29:50.493Z,101392.16
2023-04-01T22:32:28.285Z,101399.91
2023-04-01T22:35:11.588Z,101402.34
2023-04-01T22:37:46.673Z,101406.53
2023-04-01T22:40:26.311Z,101430.53
2023-04-01T22:43:32.181Z,101426.84
2023-04-01T22:46:53.745Z,101441.59
2023-04-01T22:49:28.995Z,101433.44
2023-04-01T22:52:05.824Z,101440.16
2023-04-01T22:54:44.815Z,101441.66
2023-04-01T22:57:31.335Z,101454.44
2023-04-01T23:00:09.679Z,101451.56
2023-04-01T23:02:44.157Z,101457.38
2023-04-01T23:05:17.251Z,101471.16
2023-04-01T23:08:12.441Z,101471.81
2023-04-01T23:10:50.539Z,101470.78
2023-04-01T23:13:25.821Z,101468.88
2023-04-01T23:15:55.222Z,101480.06
2023-04-01T23:18:29.782Z,101491.28
2023-04-01T23:21:00.027Z,101481.56
2023-04-01T23:23:41.805Z,101493.59
2023-04-01T23:26:19.663Z,101510.72
2023-04-01T23:28:56.906Z,101508.06
2023-04-01T23:31:32.121Z,101514.91
2023-04-01T23:34:14.504Z,101513.91
2023-04-01T23:36:48.818Z,101521.59
2023-04-01T23:39:28.807Z,101519.69
2023-04-01T23:42:01.956Z,101530.97
2023-04-01T23:44:31.456Z,101535.13
2023-04-01T23:47:00.892Z,101534.91
2023-04-01T23:49:40.239Z,101539.22
2023-04-01T23:52:26.187Z,101554.72
2023-04-01T23:55:00.785Z,101571.09
2023-04-01T23:57:37.026Z,101572.72
